KEMK

East Breaks

East Breaks, Texas, USA
METAR KEMK 280035Z AUTO 05006KT 10SM CLR 28/22 A2980 RMK A01
Observed Flight Rules
May-28 @ 00:35 UTC (29 minutes ago) Visual Flight Rules
Wind Visibility Clouds
50° at 6 knots 10 miles
  • Clear skies
Temperatures Readings
Current 28°C / 82°F
Dewpoint 22°C / 72°F
Humidity 70%
Altimeter 29.8" Hg
Pressure 1009 hPa
Elevation 26
METAR KEMK 280035Z AUTO 05006KT 10SM CLR 28/22 A2980 RMK A01
Observed Flight Rules
May-28 @ 00:35 UTC
(29 minutes ago)
VFR
Wind Visibility
50° at 6 knots 10 miles
Clouds
  • Clear skies
Temperature Dewpoint
28°C / 82°F 22°C / 72°F
Humidity Altimeter Pressure
70% 29.8" Hg 1009 hPa